Sao Caetano do Sul, Brazil
Current Conditions -  °F | °C
As of 12:00 AM on Saturday 22 Nov 2014 (Local Time) from SBSP Reporting Station
Light Rain Light Rain  
Wind Chill: 75°   Ceiling: Unl
Heat Index: 75°   Visibility: 6mi
Dew Point: 61°   Wind: 5mph
Humidity: 61%   Direction: 300°WNW
Pressure: 30.03"   Gusts: NA
Location:  23.62°S, 46.55°W
Report Text: SBSP 220200Z 30004KT 9999 -RA NSC 24/16 Q1017
Loading
Personal Weather Stations






























Interactive Weather Map New forecast layout! Learn more

10-Day Weather Forecast

Advertisements
Track Severe Weather on mobile